Date,TemperatureHighF,TemperatureAvgF,TemperatureLowF,DewpointHighF,DewpointAvgF,DewpointLowF,HumidityHigh,HumidityAvg,HumidityLow,PressureMaxIn,PressureMinIn,WindSpeedMaxMPH,WindSpeedAvgMPH,GustSpeedMaxMPH,PrecipitationSumIn
2013-1-1,32.5,28.1,17.8,31.2,24.9,13.0,96,88,76,30.13,29.98,6,2,13,0.01
2013-1-2,24.1,18.5,8.4,18.0,13.6,5.9,91,81,75,30.25,30.10,7,1,7,0.00
2013-1-3,29.5,10.5,3.7,22.1,7.2,0.9,92,87,64,30.24,30.16,12,1,14,0.00
2013-1-8,46.4,30.8,16.3,34.9,25.3,14.1,94,81,63,30.32,30.22,4,0,9,0.00
2013-1-9,45.9,39.8,29.2,40.1,34.6,25.4,90,82,64,30.46,30.16,9,4,17,0.08
2013-1-10,40.1,34.2,24.3,33.1,29.5,22.6,95,83,73,30.54,30.16,3,1,10,0.00
2013-1-11,58.7,50.8,39.8,54.0,46.5,32.3,95,85,73,30.14,29.84,11,4,23,0.42
2013-1-12,63.3,58.1,52.0,60.2,56.0,50.9,97,93,84,29.99,29.80,6,3,14,0.01
2013-1-13,63.5,59.6,41.3,60.0,56.4,39.4,96,90,81,29.98,29.70,14,6,28,0.26
2013-1-14,40.5,30.1,26.4,38.4,25.1,22.7,92,82,76,30.37,29.99,13,2,20,0.00
2013-1-15,31.7,27.8,22.7,24.9,23.0,19.9,90,82,74,30.37,30.05,13,2,13,0.00
2013-1-16,34.9,31.8,29.9,29.6,27.5,24.8,92,84,78,30.05,29.89,15,4,15,0.00
2013-1-17,31.7,31.4,31.0,28.6,28.1,27.4,88,87,86,30.14,30.02,13,3,13,0.00
2013-1-18,34.0,26.7,18.4,23.7,18.2,12.1,81,70,60,30.49,30.20,10,5,20,0.00
2013-1-19,52.2,43.1,34.0,30.9,26.7,23.4,66,53,38,30.20,29.80,15,10,32,0.00
2013-1-20,45.9,32.9,23.5,34.4,20.9,14.9,71,61,49,30.16,29.78,19,9,34,0.00
2013-1-21,23.9,20.1,10.7,19.0,12.7,1.3,88,73,64,30.17,29.99,13,8,26,0.00
2013-1-22,14.1,10.3,6.2,2.0,0.2,-1.5,70,63,53,30.33,30.17,11,8,21,0.00
2013-1-23,20.2,14.2,8.4,14.0,5.5,1.8,88,69,49,30.33,30.07,9,4,21,0.00
2013-1-24,22.7,17.4,12.6,14.9,8.6,5.6,90,69,58,30.54,30.06,9,1,17,0.00
2013-1-25,21.7,18.1,15.0,18.3,12.6,6.0,90,79,64,30.48,30.01,10,2,10,0.00
2013-1-26,28.2,24.7,20.4,24.6,19.5,13.5,92,81,69,30.44,30.09,13,3,13,0.01
2013-1-27,35.0,24.0,6.2,28.5,16.8,3.1,92,75,61,30.50,30.21,9,1,9,0.09
2013-1-28,49.7,42.7,32.2,48.9,41.2,28.4,99,94,86,30.22,29.96,18,5,18,0.42
2013-1-29,67.5,57.7,49.6,57.9,53.1,48.8,98,86,68,30.00,29.60,22,4,22,0.00
2013-1-30,64.7,55.9,33.5,57.8,50.9,30.9,92,84,70,29.60,29.17,34,8,34,0.57
2013-1-31,34.2,25.8,19.7,31.0,20.9,13.6,92,82,64,29.89,29.35,34,13,34,0.00
2013-2-1,19.7,11.9,7.8,17.2,6.0,1.7,90,77,69,30.37,29.89,23,8,23,0.00
2013-2-2,14.4,11.2,8.0,10.5,6.4,3.4,89,81,79,30.34,30.19,12,2,12,0.00
2013-2-3,25.0,21.5,17.7,23.3,18.1,12.6,93,87,75,30.08,29.87,12,4,20,0.00
2013-2-4,29.2,24.8,15.2,27.5,21.7,12.1,94,88,64,30.09,29.82,12,1,14,0.01
2013-2-5,29.8,28.4,27.0,28.0,25.8,23.4,95,90,80,29.95,29.82,15,2,15,0.00
2013-2-6,37.2,29.8,16.5,28.5,23.3,13.1,92,77,58,30.28,29.95,13,2,14,0.06
2013-2-7,48.2,34.4,15.6,35.1,26.8,12.5,92,75,54,30.25,29.80,15,1,15,0.01
2013-2-8,43.2,34.2,26.6,37.5,29.6,20.8,93,83,73,30.26,29.71,22,8,22,0.14
2013-2-9,35.9,27.9,22.4,23.7,19.4,16.7,81,70,55,30.41,30.26,13,2,13,0.00
2013-2-10,48.1,37.9,24.8,41.3,26.7,18.1,84,65,47,30.27,29.80,22,2,22,0.01
2013-2-11,52.7,45.7,37.7,46.5,37.6,28.2,93,74,52,29.93,29.69,35,11,35,0.01
2013-2-12,44.0,36.5,28.9,31.0,27.6,23.9,84,70,58,30.08,29.88,28,6,28,0.00
2013-2-13,32.7,29.3,25.5,30.6,26.3,23.1,93,89,83,29.88,29.70,10,1,10,0.04
2013-2-14,43.3,33.9,25.3,38.2,31.2,23.6,94,90,80,29.92,29.79,26,3,26,0.04
2013-2-15,35.9,31.9,25.6,33.2,28.5,22.2,94,87,80,30.08,29.92,12,2,12,0.06
2013-2-16,29.9,23.5,17.0,23.4,18.3,9.7,90,81,58,30.07,29.95,20,3,20,0.01
2013-2-17,22.9,17.7,13.9,14.0,10.5,6.6,83,73,61,30.25,30.03,16,4,18,0.00
2013-2-18,49.6,22.0,13.4,33.8,13.6,8.4,83,70,51,30.26,29.74,9,2,21,0.00
2013-2-19,47.9,29.6,21.4,40.2,24.3,14.7,93,80,56,30.02,29.60,35,14,35,0.18
2013-2-20,21.5,20.2,17.3,16.6,13.4,10.5,83,75,67,30.26,30.02,25,9,25,0.00
2013-2-21,28.1,23.1,20.3,19.2,16.6,13.1,85,76,68,30.34,30.20,13,3,13,0.00
2013-2-22,41.5,33.1,24.7,39.5,29.9,18.0,95,88,74,30.20,29.88,19,2,19,0.05
2013-2-23,41.4,35.9,28.4,33.6,30.2,23.8,90,80,63,29.94,29.83,17,2,17,0.00
2013-2-24,32.5,29.5,26.3,25.5,23.5,22.0,89,78,67,30.13,29.88,16,3,16,0.00
2013-2-25,43.7,33.5,20.8,28.5,24.1,17.8,93,70,49,30.19,29.95,13,1,13,0.00
2013-2-26,42.7,36.9,32.4,41.4,32.5,23.7,95,84,65,29.96,29.44,12,4,19,0.67
2013-2-27,42.8,37.8,32.9,41.5,35.3,30.6,95,91,84,29.65,29.45,22,8,22,0.26
2013-2-28,36.0,33.3,31.3,34.4,31.2,29.0,94,92,87,29.86,29.60,24,6,24,0.04
2013-3-1,32.8,30.3,26.2,30.5,25.8,21.8,94,83,73,30.00,29.85,13,3,13,0.01
2013-3-2,29.4,26.7,25.0,24.0,22.8,21.9,91,85,74,30.01,29.94,15,4,15,0.00
2013-3-3,27.2,24.2,19.3,22.6,19.3,15.6,91,81,70,30.05,29.98,14,3,14,0.00
2013-3-4,39.4,27.1,14.9,25.0,18.7,12.4,93,73,44,30.14,30.02,14,2,14,0.00
2013-3-5,41.3,35.1,29.1,31.2,26.2,23.3,93,70,56,30.05,29.49,17,2,17,0.02
2013-3-6,38.2,34.5,32.0,33.9,31.5,29.4,95,89,78,30.15,29.48,14,3,14,0.35
2013-3-7,41.3,35.1,31.0,32.4,30.0,28.0,89,82,68,30.31,30.13,13,3,13,0.00
2013-3-8,45.2,35.5,26.6,30.8,27.4,23.3,92,73,52,30.43,30.30,12,1,12,0.00
2013-3-9,57.5,40.8,23.2,36.5,29.6,20.7,94,67,41,30.38,30.03,11,1,12,0.00
2013-3-10,71.5,59.2,49.1,41.8,35.5,30.1,54,42,27,30.04,29.79,17,3,17,0.00
2013-3-11,61.8,58.4,55.3,39.8,37.9,36.3,52,46,41,29.80,29.74,15,2,15,0.00
2013-3-12,42.5,36.7,32.4,37.7,32.0,30.0,93,83,74,29.97,29.75,12,7,20,0.00
2013-3-13,32.6,29.9,27.0,31.3,25.9,20.8,95,85,71,30.21,29.92,13,7,24,0.01
2013-3-14,40.4,31.0,22.2,24.3,20.7,17.4,82,66,50,30.27,30.12,10,5,22,0.01
2013-3-15,49.0,38.6,29.7,39.9,30.9,22.1,87,74,65,30.11,29.81,9,4,18,0.03
2013-3-16,53.0,42.9,33.1,48.0,40.0,29.9,95,90,80,29.95,29.54,9,4,20,0.13
2013-3-17,37.4,33.5,31.1,29.7,27.3,25.4,88,78,65,30.14,29.96,5,2,15,0.00
2013-3-18,50.3,42.6,31.4,49.2,41.1,26.1,96,94,78,30.05,29.55,27,5,27,0.92
2013-3-19,42.5,35.4,29.7,38.3,26.2,19.5,88,70,52,29.99,29.71,34,13,34,0.00
2013-3-20,37.2,30.9,23.1,23.4,18.8,13.1,72,61,49,29.99,29.86,26,9,26,0.00
2013-3-21,28.4,23.9,18.6,22.1,15.5,10.0,85,70,58,29.96,29.88,18,6,19,0.00
2013-3-22,40.9,30.7,21.2,23.8,20.1,16.6,83,66,47,30.00,29.93,18,5,18,0.00
2013-3-23,46.9,34.2,21.0,28.4,22.9,17.8,92,66,40,30.03,29.91,15,2,15,0.00
2013-3-24,36.4,32.6,29.6,31.7,26.3,22.5,92,78,58,29.93,29.39,16,4,16,0.00
2013-3-25,34.2,33.0,32.3,33.5,31.2,30.0,99,93,89,29.81,29.35,14,3,14,0.27
2013-3-26,40.9,35.4,32.1,33.6,30.0,25.2,94,81,57,30.11,29.81,21,5,21,0.08
2013-3-27,41.1,34.8,32.9,31.2,29.5,27.4,92,81,60,30.18,30.10,20,5,20,0.00
2013-3-28,46.4,41.2,29.4,31.1,28.8,23.6,82,62,52,30.25,30.19,17,4,20,0.00
2013-3-29,51.9,40.4,27.2,33.4,28.8,22.9,88,65,43,30.26,30.15,18,2,18,0.00
2013-3-30,56.3,41.7,24.9,37.3,28.2,22.6,100,63,34,30.22,29.91,15,1,15,0.00
2013-3-31,52.8,45.0,36.4,47.6,39.9,28.1,93,82,63,29.91,29.68,21,3,21,0.03
2013-4-1,47.2,39.8,31.6,41.3,27.1,17.2,86,62,42,30.05,29.68,21,6,21,0.00
2013-4-2,42.3,32.8,23.6,21.7,17.9,14.6,72,55,37,30.21,30.05,20,4,20,0.00
2013-4-3,44.2,34.2,23.1,20.8,16.8,13.6,70,50,33,30.37,30.20,18,3,20,0.00
2013-4-4,52.7,38.0,23.4,26.0,18.6,12.0,74,48,26,30.35,29.94,12,1,12,0.00
2013-4-5,56.7,42.4,27.7,35.0,26.5,22.3,86,56,33,30.12,29.90,18,2,19,0.00
2013-4-6,58.6,44.9,27.8,25.7,20.6,15.3,68,41,22,30.22,29.87,15,2,15,0.00
2013-4-7,71.6,62.2,55.3,50.3,41.5,20.1,62,47,25,29.91,29.79,30,8,30,0.00
2013-4-8,72.2,61.4,47.3,55.0,49.4,41.1,90,66,49,29.92,29.80,26,5,26,0.00
2013-4-9,80.5,66.4,53.6,60.6,55.1,50.1,92,69,45,30.00,29.81,27,4,27,0.00
2013-4-10,81.8,71.9,64.5,67.3,61.3,55.9,81,70,57,29.86,29.68,30,8,30,0.01
2013-4-11,70.2,61.9,57.2,63.8,58.7,55.8,96,89,78,29.80,29.47,5,2,21,0.36
2013-4-12,59.9,45.8,40.7,58.8,40.4,34.3,96,81,72,29.85,29.39,23,8,31,0.41
2013-4-13,53.0,44.0,37.9,40.3,36.6,32.5,82,75,59,30.00,29.84,22,7,22,0.00
2013-4-14,65.2,48.7,32.5,43.9,37.2,29.9,96,68,41,30.09,29.86,13,1,13,0.00
2013-4-15,69.0,61.6,49.7,56.6,50.1,40.7,72,66,51,29.96,29.84,18,3,18,0.00
2013-4-16,77.8,63.7,56.7,65.8,57.1,51.5,96,80,55,30.11,29.90,24,4,24,0.60
2013-4-17,65.5,58.5,52.7,59.9,55.9,51.3,97,91,82,30.16,29.94,13,2,13,0.11
2013-4-18,84.7,71.3,58.6,65.5,60.0,56.0,93,70,44,29.98,29.56,26,6,26,0.00
2013-4-19,74.5,70.9,64.8,60.3,56.8,54.9,85,62,53,29.56,29.35,22,6,22,0.07
2013-4-20,45.9,41.3,34.3,34.7,29.2,25.9,89,62,52,30.37,29.88,24,6,27,0.01
2013-4-21,53.9,41.1,26.2,30.3,26.7,23.0,92,60,33,30.53,30.37,15,1,15,0.00
2013-4-22,68.9,52.0,33.1,45.9,36.2,25.5,81,57,36,30.37,30.10,18,1,18,0.00
2013-4-23,71.5,59.5,42.8,49.9,40.8,30.0,64,50,40,30.11,29.81,15,2,15,0.00
2013-4-24,63.9,52.8,36.2,55.6,45.7,33.0,95,78,55,30.15,29.68,26,5,26,0.57
2013-4-25,54.7,44.2,32.6,41.4,35.7,30.1,95,74,55,30.32,30.14,23,5,23,0.01
2013-4-26,62.7,47.1,29.7,39.1,33.1,27.1,93,61,33,30.42,30.30,9,1,9,0.00
2013-4-27,71.7,55.0,34.3,45.6,38.0,31.2,93,58,27,30.31,30.03,16,1,16,0.00
2013-4-28,62.1,57.2,53.1,59.4,53.3,45.1,96,87,61,30.03,29.78,15,1,15,0.98
2013-4-29,63.4,58.8,56.0,58.2,56.1,52.8,97,91,79,29.92,29.81,12,2,12,0.04
2013-4-30,75.9,62.1,44.3,59.5,53.6,42.8,98,76,52,30.01,29.91,7,1,13,0.00
2013-5-1,79.5,67.7,52.8,61.9,55.9,49.8,92,68,46,30.16,30.00,13,1,13,0.00
2013-5-2,75.7,66.7,54.8,60.1,54.0,47.5,81,64,54,30.19,30.04,13,2,14,0.00
2013-5-3,77.6,66.9,56.2,55.4,47.5,39.3,85,54,26,30.08,29.94,17,2,17,0.00
2013-5-4,71.8,62.2,53.1,49.8,44.9,39.2,71,54,38,30.02,29.91,17,2,17,0.00
2013-5-5,73.6,62.7,48.2,45.5,40.9,31.9,83,48,28,29.97,29.84,17,2,17,0.00
2013-5-6,68.9,61.1,56.1,58.4,49.1,34.8,90,66,35,29.92,29.86,14,1,14,0.01
2013-5-7,69.5,61.3,55.9,61.5,56.1,52.4,91,83,66,29.90,29.85,15,2,16,0.06
2013-5-8,73.2,62.4,55.4,58.4,55.2,52.8,93,78,54,29.90,29.83,14,1,14,0.05
2013-5-9,76.1,57.7,48.5,61.2,53.8,47.1,98,89,55,29.92,29.86,13,1,13,0.01
2013-5-10,73.9,64.9,59.4,65.9,61.3,56.1,96,88,67,29.87,29.72,34,5,34,0.77
2013-5-11,61.5,54.5,46.0,60.3,51.1,40.3,96,88,77,29.89,29.72,20,4,22,0.01
2013-5-12,52.2,45.6,37.8,40.5,35.3,32.0,93,68,50,30.07,29.88,23,5,23,0.00
2013-5-13,55.9,45.4,35.7,37.3,33.7,30.3,90,65,41,30.15,30.04,16,2,16,0.00
2013-5-14,73.7,54.6,33.0,56.3,43.3,30.6,95,69,43,30.11,29.73,22,3,22,0.00
2013-5-15,85.9,75.8,65.9,65.2,61.1,56.1,75,61,44,29.75,29.65,29,8,30,0.00
2013-5-16,76.1,69.5,59.3,66.1,61.0,54.6,96,76,50,29.90,29.69,15,2,15,0.19
2013-5-17,81.3,69.5,62.1,67.5,62.7,59.5,97,81,51,30.02,29.89,10,1,10,0.00
2013-5-18,78.6,66.5,58.2,67.3,60.8,55.0,92,82,66,30.02,29.90,10,1,10,0.02
2013-5-19,80.0,71.1,61.6,69.6,64.9,59.2,95,81,65,29.95,29.83,13,1,13,0.00
2013-5-20,83.5,73.1,64.8,73.6,68.8,62.9,98,87,69,29.93,29.79,16,2,16,0.00
2013-5-21,85.0,75.9,69.4,71.5,68.2,64.0,95,78,56,29.84,29.71,19,3,19,0.00
2013-5-22,79.2,71.3,63.6,67.5,63.5,60.5,91,77,62,29.77,29.65,22,3,22,0.01
2013-5-23,74.0,64.3,48.7,63.9,59.0,44.5,94,84,60,29.95,29.68,22,6,22,0.01
2013-5-24,57.2,49.1,41.5,44.7,39.0,36.6,87,69,50,30.27,29.95,20,5,21,0.00
2013-5-25,64.7,50.1,33.1,45.5,38.8,31.4,96,69,41,30.33,30.18,14,2,14,0.00
2013-5-26,68.7,53.4,36.7,44.6,38.1,32.0,95,61,31,30.28,30.15,11,1,11,0.00
2013-5-27,67.3,55.9,44.4,53.3,47.0,39.9,88,73,49,30.20,29.95,14,1,16,0.06
2013-5-28,84.3,70.8,59.2,67.6,61.1,53.2,89,73,52,29.96,29.84,26,4,26,0.01
2013-5-29,87.0,77.1,67.4,66.1,63.2,59.8,78,63,45,29.98,29.88,23,5,23,0.00
2013-5-30,89.3,77.0,61.7,69.5,64.9,59.2,96,68,44,30.08,29.94,15,2,15,0.00
2013-5-31,87.8,75.5,66.0,70.2,65.3,61.3,96,72,50,29.99,29.85,21,4,32,0.63
2013-6-1,82.8,73.5,65.6,72.2,67.8,64.4,97,83,65,29.89,29.66,24,4,24,0.15
2013-6-2,77.3,71.0,66.0,68.9,63.8,60.6,96,79,60,29.81,29.66,18,4,18,0.55
2013-6-3,66.6,62.4,54.2,60.6,55.4,47.1,87,78,64,30.01,29.80,12,2,12,0.00
2013-6-4,73.8,59.8,41.4,54.1,47.7,39.1,95,67,45,30.11,30.00,13,1,13,0.00
2013-6-5,81.0,67.6,52.9,65.1,55.1,46.8,85,66,49,30.05,29.79,10,1,10,0.05
2013-6-6,70.3,66.3,59.3,68.6,64.6,57.5,98,94,85,29.81,29.67,11,1,11,1.55
2013-6-7,68.3,59.5,56.0,59.4,56.4,54.4,97,90,71,29.83,29.72,11,2,11,0.00
2013-6-8,75.5,64.4,53.1,62.4,56.6,50.9,96,77,57,30.00,29.81,11,1,11,0.00
2013-6-9,82.0,71.9,62.5,68.1,63.6,58.5,92,76,56,30.03,29.85,13,1,13,0.00
2013-6-10,76.7,69.1,65.0,68.2,65.8,61.9,97,89,72,29.86,29.67,17,3,17,0.30
2013-6-11,82.6,71.9,62.9,68.8,65.1,61.3,96,80,58,29.84,29.73,15,4,15,0.00
2013-6-12,86.5,77.5,64.7,77.4,70.6,62.3,97,80,68,29.83,29.59,14,2,14,0.00
2013-6-13,80.6,70.3,62.8,74.5,63.2,57.3,96,79,58,29.79,29.42,29,5,30,0.54
2013-6-14,77.1,66.7,55.9,61.6,58.0,53.3,94,75,56,29.99,29.79,14,2,14,0.00
2013-6-15,79.3,67.0,50.7,63.5,57.5,49.1,97,74,45,30.06,29.89,10,1,10,0.00
2013-6-16,76.6,71.2,67.3,68.8,65.6,61.1,92,83,72,29.90,29.83,21,4,21,0.05
2013-6-17,83.3,73.0,66.9,72.3,67.8,64.5,97,85,65,29.89,29.78,17,2,17,0.00
2013-6-18,78.5,68.8,63.3,72.1,64.8,56.3,98,88,70,29.91,29.75,17,2,17,0.42
2013-6-19,77.1,65.8,54.4,57.7,53.5,48.0,90,67,37,30.07,29.90,13,1,13,0.00
2013-6-20,83.5,67.5,49.3,61.5,55.3,47.5,96,69,40,30.15,30.06,9,0,9,0.00
2013-6-21,86.8,72.6,54.7,67.9,60.9,52.9,96,70,43,30.16,30.04,13,1,13,0.00
2013-6-22,88.7,77.4,61.7,73.5,67.6,59.5,96,73,55,30.08,29.96,14,2,14,0.00
2013-6-23,87.2,77.1,64.2,73.4,68.8,63.0,98,77,57,30.04,29.93,14,2,14,0.00
2013-6-24,86.8,75.2,62.4,74.5,67.8,60.3,96,79,57,30.05,29.91,23,2,23,0.20
2013-6-25,88.8,78.5,67.8,76.9,71.5,64.5,94,80,63,29.96,29.77,20,4,20,0.00
2013-6-26,84.8,74.4,66.9,74.7,69.8,65.4,97,86,68,29.84,29.69,18,3,18,0.59
2013-6-27,68.8,68.3,67.6,68.1,67.4,66.6,98,97,96,29.72,29.64,12,1,12,0.37
2013-6-28,79.3,71.7,65.2,72.3,67.0,60.7,97,86,66,29.58,29.45,21,2,21,0.26
2013-6-29,79.0,67.3,60.0,69.2,63.2,58.3,97,88,65,29.60,29.47,16,2,16,0.35
2013-6-30,77.5,68.2,62.9,70.3,65.3,62.2,99,91,68,29.75,29.59,15,1,15,0.16
2013-7-1,81.1,70.7,64.7,69.5,66.1,63.3,96,86,63,29.85,29.73,13,1,13,0.03
2013-7-2,82.4,75.2,65.6,72.5,69.2,64.3,98,82,67,29.94,29.82,14,1,14,0.01
2013-7-3,82.6,73.9,68.9,74.0,70.0,67.0,96,88,68,30.05,29.93,11,1,11,0.01
2013-7-4,75.3,71.6,69.9,70.7,69.5,68.7,97,93,81,30.10,30.02,13,1,13,0.01
2013-7-5,78.0,71.4,67.0,72.4,69.0,66.1,98,92,79,30.08,30.00,12,1,13,0.01
2013-7-6,84.3,75.3,69.6,75.5,70.7,66.3,97,86,71,30.07,29.92,18,2,21,0.01
2013-7-7,80.1,71.6,63.7,70.4,66.5,62.0,95,85,68,30.03,29.93,20,2,20,0.01
2013-7-8,80.7,71.6,63.8,75.2,68.6,62.3,98,91,78,30.05,29.96,16,2,16,0.01
2013-7-9,84.7,74.1,69.4,79.4,71.8,68.1,98,93,78,29.99,29.88,27,3,27,0.85
2013-7-10,88.5,74.0,65.3,80.3,72.1,64.1,98,94,72,29.90,29.71,18,3,18,0.34
2013-7-11,76.2,69.4,61.3,67.4,63.7,56.8,98,83,62,29.93,29.84,12,1,14,0.00
2013-7-12,78.1,67.9,57.0,65.9,60.7,55.2,96,79,62,30.01,29.93,16,2,16,0.00
2013-7-13,83.0,72.9,61.3,70.8,66.3,59.9,97,81,63,30.09,29.99,11,1,11,0.00
2013-7-14,87.8,78.9,67.9,76.4,71.6,65.8,95,79,66,30.16,30.07,14,1,14,0.00
2013-7-15,91.1,81.8,72.5,76.9,72.8,68.5,93,75,57,30.23,30.13,9,1,9,0.00
2013-7-16,94.0,81.4,68.7,80.1,74.0,67.5,98,80,56,30.23,30.14,6,0,9,0.00
2013-7-17,93.4,82.7,71.1,77.7,74.7,69.8,98,79,57,30.21,30.05,11,1,11,0.00
2013-7-18,91.5,81.0,71.7,79.3,75.0,70.4,97,83,62,30.09,29.92,11,1,11,0.00
2013-7-19,89.5,77.6,72.1,79.2,73.5,68.7,97,88,67,29.94,29.79,21,2,21,0.36
2013-7-20,77.7,73.8,70.6,73.4,71.4,69.0,97,92,85,29.85,29.75,11,2,11,0.73
2013-7-21,83.0,74.7,68.2,74.5,71.0,67.0,98,89,71,29.88,29.80,6,0,6,0.00
2013-7-22,73.7,71.7,68.8,72.1,70.0,67.3,98,94,91,29.84,29.67,13,1,13,1.60
2013-7-23,80.8,73.0,68.0,76.5,70.5,67.0,98,92,78,29.72,29.58,19,2,19,0.62
2013-7-24,73.7,67.4,59.9,67.9,61.8,54.7,97,83,60,29.92,29.68,13,2,13,0.00
2013-7-25,77.6,64.9,52.4,61.7,56.1,50.7,96,75,53,30.01,29.92,9,1,10,0.00
2013-7-26,80.4,67.1,52.4,64.3,59.2,51.0,97,78,51,30.02,29.89,11,1,11,0.00
2013-7-27,72.5,66.8,63.5,67.5,64.2,61.1,95,91,82,29.89,29.74,18,2,18,0.19
2013-7-28,70.6,63.6,55.8,62.4,56.2,52.8,96,78,56,29.98,29.77,18,2,18,0.00
2013-7-29,74.2,64.6,53.4,62.1,56.8,50.6,94,77,56,30.12,29.96,16,2,16,0.00
2013-7-30,79.3,67.1,54.8,65.8,60.1,53.5,97,80,56,30.16,30.05,8,0,8,0.00
2013-7-31,74.1,68.0,63.4,68.2,64.7,61.2,97,89,78,30.05,29.86,10,1,12,0.00
2013-8-1,80.3,71.4,65.4,68.4,65.8,62.7,98,84,57,29.86,29.80,12,2,13,0.09
2013-8-2,77.5,69.0,58.3,66.5,62.1,56.9,97,80,59,29.93,29.84,13,1,13,0.00
2013-8-3,80.1,69.6,61.8,69.3,64.7,59.5,97,86,61,29.93,29.86,10,1,10,0.36
2013-8-4,76.3,66.0,57.5,61.1,58.3,53.6,97,78,55,30.04,29.92,13,2,13,0.00
2013-8-5,76.2,64.0,50.0,63.5,56.9,48.5,97,80,53,30.07,29.90,10,0,10,0.00
2013-8-6,81.2,70.7,58.5,66.8,61.6,56.5,95,75,55,29.94,29.85,12,1,12,0.00
2013-8-7,85.2,73.6,62.7,76.5,69.3,60.4,98,87,71,29.87,29.78,14,2,14,0.00
2013-8-8,83.7,75.2,70.8,77.3,72.7,69.9,97,92,78,29.87,29.80,11,1,11,0.14
2013-8-9,70.8,70.1,69.8,69.9,69.4,69.0,98,98,97,29.84,29.79,5,0,5,0.10
2013-8-14,68.2,59.0,49.8,56.0,51.7,47.8,94,78,60,30.10,29.94,5,1,13,0.00
2013-8-15,74.5,60.5,45.5,58.5,52.1,44.0,98,76,50,30.13,30.02,4,0,11,0.00
2013-8-16,76.1,63.5,50.5,61.1,55.2,49.2,97,77,52,30.09,30.04,4,1,12,0.00
2013-8-17,79.9,67.0,56.8,65.5,59.3,54.2,93,78,54,30.13,30.07,5,1,13,0.00
2013-8-18,71.6,64.8,56.1,66.5,62.0,54.0,96,91,83,30.12,30.04,2,0,7,0.00
2013-8-19,81.6,70.9,62.6,67.2,64.2,59.4,98,81,54,30.07,29.98,2,0,7,0.00
2013-8-20,84.8,70.9,55.7,69.7,62.8,54.3,98,78,51,30.11,30.02,7,0,7,0.22
2013-8-21,83.3,69.3,58.2,71.3,64.7,56.8,98,87,62,30.10,29.97,9,0,9,0.00
2013-8-22,82.7,72.5,61.7,73.6,68.1,60.2,98,87,70,30.03,29.91,14,2,14,0.19
2013-8-23,84.2,73.0,65.3,70.7,66.4,58.7,98,81,53,30.07,29.91,22,1,22,1.92
2013-8-24,82.8,69.5,56.9,65.3,60.2,54.1,92,74,49,30.20,30.07,11,1,11,0.00
2013-8-25,62.1,57.8,55.3,58.4,55.9,53.9,97,94,88,30.28,30.18,1,0,1,0.00
2013-8-26,85.3,72.2,57.3,73.9,65.7,55.6,98,81,64,30.18,29.95,14,2,14,0.00
2013-8-27,82.8,75.5,70.1,76.0,71.7,67.9,94,88,78,29.97,29.83,13,2,13,0.00
2013-8-28,84.0,77.9,71.6,77.0,73.6,69.4,94,87,76,29.86,29.75,14,3,14,0.08
2013-8-29,84.1,74.2,68.1,73.1,69.9,66.6,98,87,66,29.95,29.85,8,0,8,0.01
2013-8-30,86.5,74.3,61.6,74.8,68.9,60.7,99,84,64,29.92,29.74,12,1,12,0.00
2013-8-31,73.9,72.1,69.3,68.8,68.3,67.2,94,88,84,29.76,29.69,18,2,18,0.26
2013-9-1,83.7,75.5,69.5,73.5,70.8,68.5,97,86,69,29.74,29.66,6,1,12,0.00
2013-9-2,82.6,74.0,66.0,74.5,70.0,64.0,97,88,72,29.78,29.67,10,2,19,0.17
2013-9-3,68.2,62.1,54.2,64.1,57.0,51.9,95,84,67,29.99,29.78,13,1,13,0.00
2013-9-4,79.1,63.6,48.0,64.7,57.1,46.6,98,81,59,30.08,29.98,12,1,12,0.00
2013-9-5,79.4,67.1,58.0,66.9,58.9,49.4,95,76,48,30.13,30.01,13,1,13,0.00
2013-9-6,75.1,60.2,45.3,56.3,50.3,43.7,97,73,40,30.20,30.05,7,0,7,0.00
2013-9-7,81.8,64.6,46.7,67.3,57.1,45.3,98,79,56,30.05,29.86,11,1,11,0.00
2013-9-8,81.8,72.6,66.3,71.6,66.8,62.7,94,83,68,29.95,29.83,11,1,11,0.00
2013-9-9,86.6,73.4,59.6,74.0,67.2,57.9,97,82,64,29.98,29.88,13,1,13,0.00
2013-9-10,76.1,74.7,73.7,70.5,69.9,69.6,88,85,82,30.00,29.92,10,2,10,0.00
2013-9-11,85.9,77.5,72.8,76.5,72.7,70.1,94,86,64,30.05,29.90,8,1,19,0.07
2013-9-12,75.8,71.5,63.0,72.1,68.7,60.3,97,91,79,29.92,29.74,16,2,16,0.39
2013-9-13,63.9,58.0,49.4,59.9,52.4,46.9,95,82,67,30.01,29.79,19,3,19,0.00
2013-9-14,67.3,54.0,42.1,50.9,46.4,40.8,96,78,49,30.12,30.01,11,0,11,0.00
2013-9-15,72.0,56.8,40.5,59.4,50.7,39.2,97,82,54,30.11,29.97,10,1,10,0.01
2013-9-16,71.4,61.1,54.1,59.1,55.8,50.2,97,84,57,30.24,30.00,9,1,9,0.09
2013-9-17,70.4,57.0,46.8,57.2,51.5,45.5,97,83,58,30.30,30.14,9,1,9,0.00
2013-9-18,71.3,61.1,50.7,63.9,57.0,49.0,96,87,74,30.15,30.00,10,1,10,0.00
2013-9-19,70.2,66.4,63.5,68.0,64.7,62.0,97,94,90,30.03,29.92,12,1,12,0.00
2013-9-20,84.1,72.7,66.6,74.5,69.1,65.4,98,89,67,29.94,29.70,17,2,17,1.00
2013-9-21,72.0,65.5,54.7,67.1,61.4,52.0,97,87,59,29.77,29.59,21,2,21,0.84
2013-9-22,65.3,55.1,47.3,52.0,48.6,44.7,95,80,55,29.98,29.77,11,1,11,0.00
2013-9-23,60.8,50.2,39.6,51.3,44.7,38.3,97,83,63,30.09,29.97,11,1,11,0.00
2013-9-24,67.8,52.2,38.3,54.4,46.2,37.0,97,82,55,30.08,29.89,13,1,13,0.00
2013-9-25,73.6,56.9,44.5,58.4,51.2,43.1,97,83,56,29.91,29.79,9,1,9,0.00
2013-9-26,77.5,59.5,49.5,58.4,52.2,47.8,96,80,39,30.02,29.85,9,0,9,0.00
2013-9-27,75.5,59.0,43.6,58.6,51.9,42.0,97,79,53,30.12,30.02,5,0,9,0.00
2013-9-28,77.7,61.1,45.8,61.7,53.3,44.3,98,78,48,30.15,30.01,11,0,11,0.00
2013-9-29,74.9,62.2,50.7,64.2,57.6,49.2,97,86,65,30.02,29.91,10,1,12,0.00
2013-9-30,69.7,63.3,60.1,63.9,60.2,57.8,96,90,80,29.97,29.88,6,0,9,0.01
2013-10-1,77.5,64.1,52.3,65.0,58.9,50.9,98,85,58,30.02,29.92,14,1,15,0.00
2013-10-2,81.1,66.8,55.7,69.2,62.2,54.3,98,86,65,30.04,29.94,13,1,13,0.00
2013-10-3,78.2,69.5,62.7,70.1,66.0,61.3,98,89,72,30.00,29.92,12,1,12,0.00
2013-10-4,81.8,69.9,62.5,70.2,65.9,60.8,97,88,61,30.01,29.93,14,1,14,0.58
2013-10-5,80.8,70.8,63.8,72.7,67.9,62.9,98,91,72,29.99,29.86,15,1,15,0.11
2013-10-6,80.4,70.2,54.4,69.4,66.0,52.3,97,88,66,29.87,29.61,35,3,35,0.98
2013-10-7,60.2,52.9,46.2,52.1,47.5,43.9,96,83,58,30.10,29.70,18,4,18,0.53
2013-10-8,66.6,53.8,39.0,51.0,46.0,37.7,98,77,52,30.23,30.10,12,1,12,0.00
2013-10-9,69.3,53.9,41.5,50.9,45.6,40.2,98,77,44,30.23,30.12,3,1,11,0.00
2013-10-10,74.5,55.0,40.2,55.8,46.3,38.7,98,76,43,30.15,30.01,5,0,6,0.00
2013-10-11,75.5,58.8,44.4,57.8,50.5,42.8,96,77,42,30.06,29.95,11,1,11,0.00
2013-10-12,73.0,61.5,51.2,62.7,57.0,49.8,98,86,68,30.06,29.96,6,0,6,0.00
2013-10-13,69.8,62.2,56.4,63.1,58.8,53.5,97,89,78,30.20,30.05,11,0,11,0.00
2013-10-14,70.0,59.2,50.6,56.2,52.0,48.4,93,78,58,30.26,30.13,13,1,13,0.00
2013-10-15,69.9,58.8,46.7,62.9,55.5,45.1,97,89,78,30.15,29.88,10,1,10,0.00
2013-10-16,66.0,63.1,55.9,63.5,60.6,52.0,96,92,83,29.88,29.77,16,2,16,0.05
2013-10-17,55.9,49.0,40.2,52.0,46.4,38.6,97,91,83,29.89,29.75,14,2,14,0.22
2013-10-18,62.7,51.9,43.1,49.6,44.8,41.8,96,78,55,29.98,29.87,18,3,19,0.00
2013-10-19,51.7,46.8,41.6,48.0,43.4,39.5,94,88,78,29.92,29.72,18,2,18,0.14
2013-10-20,60.1,48.3,38.9,44.7,40.5,36.2,98,76,53,29.98,29.92,15,4,20,0.00
2013-10-21,65.3,54.1,42.6,48.9,41.8,37.7,85,65,41,29.97,29.80,21,4,21,0.00
2013-10-22,55.1,43.2,33.7,49.3,35.4,30.5,91,75,50,29.97,29.80,18,2,18,0.14
2013-10-23,45.2,39.4,35.7,38.8,36.2,33.8,100,88,66,29.95,29.73,16,2,16,0.41
2013-10-24,45.2,37.6,33.1,35.2,32.2,27.4,93,82,54,30.17,29.94,22,3,22,0.02
2013-10-25,47.4,37.6,29.2,36.0,30.9,27.4,93,78,56,30.35,30.17,18,2,18,0.00
2013-10-26,35.9,34.0,33.0,28.7,27.8,27.0,80,78,74,30.23,30.09,11,2,11,0.00
2013-10-27,54.6,41.7,29.8,40.6,33.8,27.8,96,76,47,30.07,29.97,7,1,14,0.00
2013-10-28,61.0,42.6,27.8,46.8,34.3,26.3,97,76,41,30.25,30.05,7,0,7,0.01
2013-10-29,59.5,45.7,32.7,44.5,38.8,31.1,96,79,48,30.34,30.17,7,0,7,0.00
2013-10-30,64.5,54.0,45.4,57.5,49.8,41.0,95,86,74,30.17,29.97,11,0,11,0.00
2013-10-31,64.7,61.5,58.9,59.6,58.5,57.5,98,90,80,29.97,29.27,24,5,24,0.29
2013-11-1,63.9,55.9,50.3,60.8,51.4,46.2,95,85,62,29.65,29.23,38,8,38,0.12
2013-11-2,52.2,48.4,43.3,46.6,42.1,39.5,92,79,65,29.99,29.63,20,4,20,0.01
2013-11-3,53.5,44.2,39.1,40.8,37.0,31.8,93,77,48,30.37,29.99,11,1,11,0.00
2013-11-4,53.9,43.5,31.8,39.0,33.1,27.6,85,68,49,30.43,30.30,13,1,13,0.00
2013-11-5,61.0,53.0,47.2,44.6,39.9,36.9,71,61,52,30.38,30.20,5,1,11,0.00
2013-11-6,67.9,57.4,49.0,58.3,46.8,34.3,96,69,52,30.20,29.85,12,4,22,0.35
2013-11-7,56.2,42.7,37.7,54.6,35.9,29.4,95,78,55,30.14,29.86,12,4,20,0.20
2013-11-8,45.5,37.2,28.1,34.3,31.0,25.2,92,79,57,30.30,30.10,8,2,16,0.00
2013-11-9,58.9,46.5,28.1,38.5,32.6,25.5,93,60,41,30.23,29.92,22,6,31,0.00
2013-11-10,49.8,45.9,43.9,38.5,38.1,37.7,80,74,63,29.99,29.96,13,5,15,0.00
2013-11-11,49.9,39.1,26.7,42.1,32.9,24.4,94,80,52,30.28,30.01,11,4,20,0.07
2013-11-12,33.3,28.6,24.7,31.2,24.7,20.9,94,85,76,30.54,30.15,16,4,16,0.01
2013-11-13,36.7,28.9,21.1,25.5,21.3,18.4,90,74,54,30.57,30.35,17,3,17,0.01
2013-11-14,51.7,38.9,28.7,28.2,23.4,21.1,74,56,32,30.35,30.11,18,4,18,0.00
2013-11-15,52.1,45.5,38.0,40.5,28.3,21.3,78,51,39,30.14,30.05,17,3,17,0.00
2013-11-16,59.2,52.9,46.4,52.7,47.8,40.5,90,83,76,30.12,29.87,17,2,17,0.00
2013-11-17,60.0,58.0,55.8,58.2,55.1,52.1,95,90,81,29.88,29.44,24,6,25,0.57
2013-11-18,38.6,37.1,34.8,31.4,29.3,27.5,76,73,69,30.10,30.05,20,4,20,0.40
2013-11-19,40.9,35.0,28.0,29.2,26.6,24.3,86,71,59,30.35,30.09,17,2,17,0.00
2013-11-20,48.0,36.2,27.2,31.1,26.7,22.7,86,69,50,30.36,30.23,13,1,13,0.00
2013-11-21,55.7,47.2,37.3,44.9,36.9,27.8,90,68,56,30.33,30.14,11,1,11,0.05
2013-11-22,52.6,47.6,36.5,51.8,45.1,30.9,97,91,79,30.28,30.06,18,4,20,0.31
2013-11-23,36.5,29.7,20.4,31.2,23.2,12.1,92,77,61,30.45,30.22,25,5,25,0.00
2013-11-24,24.9,19.1,14.9,12.3,10.2,6.8,86,69,50,30.61,30.45,16,4,16,0.00
2013-11-25,35.4,27.0,15.7,28.2,16.2,10.9,86,65,45,30.52,30.16,24,2,24,0.00
2013-11-26,33.4,31.7,29.5,32.0,29.8,27.2,100,93,79,30.17,29.82,10,0,10,0.06
2013-11-27,30.0,28.6,25.3,28.5,26.7,22.2,95,93,87,29.89,29.80,12,2,12,0.00
2013-11-28,30.0,25.7,20.5,23.6,20.2,16.7,92,80,69,30.40,30.20,6,2,11,0.00
2013-11-29,37.7,29.1,18.5,25.3,22.0,14.4,90,75,57,30.59,30.40,4,0,7,0.12
2013-11-30,44.2,33.3,23.3,31.6,26.0,19.8,89,75,59,30.53,30.15,6,1,14,0.01
2013-12-1,44.5,39.2,30.6,34.7,31.2,25.9,85,73,67,30.15,29.92,5,1,11,0.00
2013-12-2,43.2,35.9,33.2,37.0,32.6,30.6,93,88,79,29.91,29.82,7,0,7,0.00